Time;durP1;ratioP1;P1;durP2;ratioP2;P2;SDS_P1;SDS_P2;PMS_P1;PMS_P2;Temp;Humidity;BMP_temperature;BMP_pressure;BME280_temperature;BME280_humidity;BME280_pressure;Samples;Min_cycle;Max_cycle;Signal;HPM_P1;HPM_P2
2022/05/03 00:01:58;;;;;;;24.40;18.23;;;8.80;99.90;;;;;;4978151;28;38134;-75
2022/05/03 00:04:33;;;;;;;25.70;18.43;;;8.70;99.90;;;;;;4981043;28;38639;-75
2022/05/03 00:07:23;;;;;;;24.63;18.83;;;8.60;99.90;;;;;;4978679;28;38880;-75
2022/05/03 00:10:03;;;;;;;26.50;19.17;;;8.60;99.90;;;;;;4977106;28;49814;-75
2022/05/03 00:12:55;;;;;;;32.23;21.83;;;8.60;99.90;;;;;;4963460;28;47572;-75
2022/05/03 00:15:23;;;;;;;28.07;20.03;;;8.60;99.90;;;;;;4964268;28;38572;-74
2022/05/03 00:17:51;;;;;;;26.73;19.93;;;8.50;99.90;;;;;;4976413;28;38648;-75
2022/05/03 00:20:18;;;;;;;25.53;20.63;;;8.50;99.90;;;;;;4979001;28;38626;-75
2022/05/03 00:22:45;;;;;;;27.00;20.17;;;8.50;99.90;;;;;;4977970;28;37443;-75
2022/05/03 00:25:11;;;;;;;29.00;21.00;;;8.40;99.90;;;;;;4980616;28;38956;-75
2022/05/03 00:27:38;;;;;;;27.07;19.73;;;8.40;99.90;;;;;;4975654;28;38805;-75
2022/05/03 00:30:05;;;;;;;25.37;19.80;;;8.30;99.90;;;;;;4960871;28;38880;-74
2022/05/03 00:32:31;;;;;;;30.13;21.13;;;8.30;99.90;;;;;;4965294;28;36090;-74
2022/05/03 00:34:59;;;;;;;26.77;20.07;;;8.20;99.90;;;;;;4976739;28;38633;-75
2022/05/03 00:37:26;;;;;;;27.77;20.77;;;8.20;99.90;;;;;;4977623;28;38664;-75
2022/05/03 00:39:52;;;;;;;27.20;20.53;;;8.20;99.90;;;;;;4977490;28;39806;-74
2022/05/03 00:42:25;;;;;;;28.40;19.77;;;8.20;99.90;;;;;;4953678;28;37978;-74
2022/05/03 00:45:00;;;;;;;;;;;8.10;99.90;;;;;;4954589;28;40819;-74
2022/05/03 00:47:43;;;;;;;28.63;20.30;;;8.00;99.90;;;;;;4978788;28;38731;-75
2022/05/03 00:50:28;;;;;;;35.43;22.67;;;8.10;99.90;;;;;;4974814;28;40229;-74
2022/05/03 00:53:18;;;;;;;33.20;23.63;;;8.00;99.90;;;;;;4960129;28;37611;-75
2022/05/03 00:56:18;;;;;;;31.67;23.87;;;7.90;99.90;;;;;;4958705;28;46893;-74
2022/05/03 00:59:06;;;;;;;30.53;21.40;;;7.90;99.90;;;;;;4958021;28;47167;-74
2022/05/03 01:01:38;;;;;;;33.33;23.73;;;7.90;99.90;;;;;;4978229;28;48980;-75
2022/05/03 01:04:17;;;;;;;29.13;21.83;;;7.80;99.90;;;;;;4956870;28;38995;-74
2022/05/03 01:06:43;;;;;;;32.43;21.53;;;7.80;99.90;;;;;;4957426;28;39216;-75
2022/05/03 01:09:09;;;;;;;29.70;20.33;;;7.80;99.90;;;;;;4957508;28;39209;-74
2022/05/03 01:12:12;;;;;;;28.40;21.00;;;7.80;99.90;;;;;;4962080;28;38314;-76
2022/05/03 01:15:09;;;;;;;27.03;21.70;;;7.80;99.90;;;;;;4951830;28;47689;-77
2022/05/03 01:18:00;;;;;;;30.47;22.00;;;7.80;99.90;;;;;;4960030;28;47229;-77
2022/05/03 01:20:41;;;;;;;29.30;20.83;;;7.80;99.90;;;;;;4961150;28;39365;-76
2022/05/03 01:23:42;;;;;;;27.03;20.57;;;7.80;99.90;;;;;;4957447;28;40231;-76
2022/05/03 01:26:29;;;;;;;33.10;21.53;;;7.70;99.90;;;;;;4977631;28;38159;-77
2022/05/03 01:29:13;;;;;;;30.70;21.17;;;7.70;99.90;;;;;;4977551;28;37360;-77
2022/05/03 01:31:39;;;;;;;34.57;22.90;;;7.70;99.90;;;;;;4953925;28;47318;-76
2022/05/03 01:34:10;;;;;;;30.60;23.37;;;7.60;99.90;;;;;;4976095;28;39193;-77
2022/05/03 01:37:06;;;;;;;30.37;21.03;;;7.60;99.90;;;;;;4977404;28;38330;-77
2022/05/03 01:39:56;;;;;;;29.40;20.90;;;7.60;99.90;;;;;;4962366;28;49074;-77
2022/05/03 01:42:49;;;;;;;34.20;23.20;;;7.50;99.90;;;;;;4980862;28;38545;-77
2022/05/03 01:45:40;;;;;;;34.20;22.73;;;7.50;99.90;;;;;;4979115;28;38448;-76
2022/05/03 01:51:44;;;;;;;37.47;25.17;;;7.40;99.90;;;;;;4974259;28;49199;-76
2022/05/03 01:54:27;;;;;;;37.23;26.03;;;7.50;99.90;;;;;;4957476;28;38549;-76
2022/05/03 01:56:56;;;;;;;40.67;26.25;;;7.50;99.90;;;;;;4975125;28;37977;-76
2022/05/03 02:00:00;;;;;;;42.63;27.87;;;7.40;99.90;;;;;;4977556;28;38571;-76
2022/05/03 02:02:32;;;;;;;43.20;28.60;;;7.40;99.90;;;;;;4922521;28;41480;-77
2022/05/03 02:05:06;;;;;;;47.65;29.83;;;7.40;99.90;;;;;;4975367;28;39522;-77
2022/05/03 02:07:57;;;;;;;46.90;31.03;;;7.40;99.90;;;;;;4978461;28;48659;-77
2022/05/03 02:10:41;;;;;;;47.00;30.70;;;7.40;99.90;;;;;;4985646;28;37378;-77
2022/05/03 02:14:43;;;;;;;48.97;31.37;;;7.40;99.90;;;;;;4960924;28;39665;-76
2022/05/03 02:16:29;;;;;;;46.80;30.47;;;7.40;99.90;;;;;;4978634;28;38690;-76
2022/05/03 02:19:12;;;;;;;47.42;32.78;;;7.40;99.90;;;;;;4968607;28;37360;-77
2022/05/03 02:21:53;;;;;;;49.67;34.90;;;7.30;99.90;;;;;;4972092;28;47409;-76
2022/05/03 02:24:33;;;;;;;47.63;32.00;;;7.30;99.90;;;;;;4979472;28;39543;-76
2022/05/03 02:27:10;;;;;;;51.77;34.27;;;7.30;99.90;;;;;;4958387;28;40404;-76
2022/05/03 02:29:47;;;;;;;47.63;31.17;;;7.30;99.90;;;;;;4979276;28;48619;-77
2022/05/03 02:32:21;;;;;;;53.40;32.30;;;7.20;99.90;;;;;;4977000;28;37328;-76
2022/05/03 02:34:58;;;;;;;47.43;30.57;;;7.20;99.90;;;;;;4979894;28;38645;-76
2022/05/03 02:37:33;;;;;;;52.17;34.13;;;7.20;99.90;;;;;;4976125;28;39873;-76
2022/05/03 02:39:59;;;;;;;53.87;33.97;;;7.20;99.90;;;;;;4987225;28;40023;-76
2022/05/03 02:42:25;;;;;;;49.27;33.90;;;7.10;99.90;;;;;;4978073;28;37389;-76
2022/05/03 02:44:56;;;;;;;57.47;35.47;;;7.10;99.90;;;;;;4981603;28;38696;-77
2022/05/03 02:47:50;;;;;;;51.03;34.47;;;7.10;99.90;;;;;;4980442;28;39593;-77
2022/05/03 02:50:46;;;;;;;57.63;35.83;;;7.10;99.90;;;;;;4970243;28;38674;-76
2022/05/03 02:53:30;;;;;;;53.17;34.10;;;7.10;99.90;;;;;;4949672;28;37754;-76
2022/05/03 02:56:22;;;;;;;54.87;34.10;;;7.00;99.90;;;;;;4966123;28;40502;-77
2022/05/03 02:59:05;;;;;;;57.20;35.60;;;7.00;99.90;;;;;;4957724;28;47122;-77
2022/05/03 03:01:56;;;;;;;50.45;32.83;;;7.00;99.90;;;;;;4983374;28;48917;-76
2022/05/03 03:04:43;;;;;;;58.27;35.57;;;7.00;99.90;;;;;;4979299;28;38509;-76
2022/05/03 03:07:16;;;;;;;56.47;37.10;;;7.00;99.90;;;;;;4964050;28;40008;-77
2022/05/03 03:10:05;;;;;;;58.40;36.20;;;7.00;99.90;;;;;;4966471;28;40296;-77
2022/05/03 03:12:47;;;;;;;55.17;35.23;;;7.00;99.90;;;;;;4976621;28;48934;-76
2022/05/03 03:15:16;;;;;;;56.13;35.55;;;7.10;99.90;;;;;;4955862;28;37964;-76
2022/05/03 03:17:48;;;;;;;59.37;36.03;;;7.00;99.90;;;;;;4983364;28;39040;-76
2022/05/03 03:20:17;;;;;;;62.88;37.30;;;7.00;99.90;;;;;;4979041;28;38764;-76
2022/05/03 03:22:45;;;;;;;53.97;34.60;;;7.00;99.90;;;;;;4984335;28;38390;-76
2022/05/03 03:25:17;;;;;;;55.50;36.43;;;7.00;99.90;;;;;;4953435;28;37839;-76
2022/05/03 03:27:45;;;;;;;52.47;34.13;;;7.00;99.90;;;;;;4965503;28;37845;-76
2022/05/03 03:30:13;;;;;;;51.77;32.93;;;6.90;99.90;;;;;;4975613;28;38853;-76
2022/05/03 03:32:46;;;;;;;51.53;33.33;;;6.90;99.90;;;;;;4977472;28;38549;-76
2022/05/03 03:35:15;;;;;;;54.83;36.37;;;6.90;99.90;;;;;;4986627;28;38110;-76
2022/05/03 03:37:46;;;;;;;58.30;33.53;;;6.90;99.90;;;;;;4977905;28;39333;-76
2022/05/03 03:40:14;;;;;;;56.03;35.30;;;6.90;99.90;;;;;;4965880;28;38233;-76
2022/05/03 03:42:45;;;;;;;57.10;35.97;;;6.90;99.90;;;;;;4981255;28;39426;-76
2022/05/03 03:45:12;;;;;;;58.70;37.13;;;6.90;99.90;;;;;;4965027;28;38025;-76
2022/05/03 03:47:41;;;;;;;48.87;32.57;;;6.90;99.90;;;;;;4976388;28;37255;-76
2022/05/03 03:50:09;;;;;;;58.87;37.73;;;6.80;99.90;;;;;;4964179;28;39265;-76
2022/05/03 03:52:38;;;;;;;58.90;35.77;;;6.80;99.90;;;;;;4968467;28;39073;-76
2022/05/03 03:55:05;;;;;;;51.03;34.10;;;6.80;99.90;;;;;;4973151;28;38401;-76
2022/05/03 03:57:31;;;;;;;60.50;39.23;;;6.80;99.90;;;;;;4979826;28;39468;-76
2022/05/03 04:00:13;;;;;;;58.23;35.73;;;6.80;99.90;;;;;;4981367;28;38740;-76
2022/05/03 04:02:44;;;;;;;60.43;36.63;;;6.90;99.90;;;;;;4957621;28;47410;-77
2022/05/03 04:05:19;;;;;;;57.17;35.70;;;6.90;99.90;;;;;;4979712;28;38004;-76
2022/05/03 04:07:46;;;;;;;47.97;32.70;;;6.90;99.90;;;;;;4981689;28;39368;-77
2022/05/03 04:10:12;;;;;;;58.17;35.47;;;7.00;99.90;;;;;;4963210;28;39327;-77
2022/05/03 04:12:39;;;;;;;59.03;36.53;;;7.00;99.90;;;;;;4977495;28;38650;-77
2022/05/03 04:15:06;;;;;;;57.83;36.10;;;7.00;99.90;;;;;;4960422;28;37524;-76
2022/05/03 04:17:32;;;;;;;57.77;35.57;;;7.10;99.90;;;;;;4977037;28;40218;-76
2022/05/03 04:19:59;;;;;;;58.27;34.90;;;7.20;99.90;;;;;;4980635;28;39784;-76
2022/05/03 04:22:28;;;;;;;58.00;35.27;;;7.20;99.90;;;;;;4974410;28;38503;-76
2022/05/03 04:24:54;;;;;;;53.63;35.37;;;7.30;99.90;;;;;;4957900;28;38034;-77
2022/05/03 04:27:21;;;;;;;60.20;36.00;;;7.40;99.90;;;;;;4972740;28;39901;-76
2022/05/03 04:29:50;;;;;;;57.80;35.70;;;7.40;99.90;;;;;;4958197;28;37975;-77
2022/05/03 04:32:17;;;;;;;58.47;36.10;;;7.50;99.90;;;;;;4958828;28;37851;-76
2022/05/03 04:34:43;;;;;;;57.30;36.47;;;7.60;99.90;;;;;;4971977;28;37810;-75
2022/05/03 04:37:09;;;;;;;54.10;32.13;;;7.70;99.90;;;;;;4953902;28;39156;-75
2022/05/03 04:39:36;;;;;;;49.93;34.03;;;7.80;99.90;;;;;;4979246;28;38210;-75
2022/05/03 04:42:02;;;;;;;51.27;34.27;;;7.90;99.90;;;;;;4960356;28;39348;-75
2022/05/03 04:44:28;;;;;;;47.30;32.77;;;8.00;99.90;;;;;;4959068;28;37646;-75
2022/05/03 04:46:54;;;;;;;50.87;33.63;;;8.10;99.90;;;;;;4957396;28;39729;-75
2022/05/03 04:49:21;;;;;;;47.57;32.97;;;8.20;99.90;;;;;;4979757;28;38689;-75
2022/05/03 04:51:47;;;;;;;46.90;31.13;;;8.20;99.90;;;;;;4959677;28;40548;-75
2022/05/03 04:54:13;;;;;;;47.47;30.73;;;8.20;99.90;;;;;;4967202;28;35368;-75
2022/05/03 04:56:53;;;;;;;45.57;30.40;;;8.30;99.90;;;;;;4964925;28;40499;-76
2022/05/03 04:59:19;;;;;;;42.63;29.97;;;8.30;99.90;;;;;;4958619;28;37134;-75
2022/05/03 05:01:45;;;;;;;47.70;31.77;;;8.40;99.90;;;;;;4974622;28;38722;-75
2022/05/03 05:04:11;;;;;;;47.57;31.27;;;8.40;99.90;;;;;;4979748;28;37909;-75
2022/05/03 05:06:37;;;;;;;38.47;28.13;;;8.50;99.90;;;;;;4981132;28;36943;-75
2022/05/03 05:09:03;;;;;;;39.17;27.33;;;8.60;99.90;;;;;;4950723;28;38712;-75
2022/05/03 05:11:29;;;;;;;48.43;29.03;;;8.70;99.90;;;;;;4976487;28;38617;-75
2022/05/03 05:13:56;;;;;;;37.90;25.73;;;8.80;99.90;;;;;;4977138;28;37415;-75
2022/05/03 05:16:22;;;;;;;43.40;28.70;;;8.90;99.90;;;;;;4975015;28;39544;-76
2022/05/03 05:18:48;;;;;;;43.70;28.13;;;9.00;99.90;;;;;;4954315;28;39645;-76
2022/05/03 05:21:14;;;;;;;36.80;24.60;;;9.00;99.90;;;;;;4978155;28;39251;-75
2022/05/03 05:23:40;;;;;;;40.00;26.80;;;9.10;99.90;;;;;;4977863;28;37444;-76
2022/05/03 05:26:06;;;;;;;36.77;27.13;;;9.30;99.90;;;;;;4971882;28;39066;-75
2022/05/03 05:28:32;;;;;;;40.30;28.13;;;9.30;99.90;;;;;;4963990;28;38808;-76
2022/05/03 05:30:58;;;;;;;40.07;27.03;;;9.40;99.90;;;;;;4985106;28;37361;-76
2022/05/03 05:33:25;;;;;;;35.93;23.90;;;9.50;99.90;;;;;;4978277;28;38166;-75
2022/05/03 05:35:51;;;;;;;37.83;26.37;;;9.60;99.90;;;;;;4979053;28;38662;-75
2022/05/03 05:38:18;;;;;;;37.97;24.93;;;9.70;99.90;;;;;;4963673;28;38003;-75
2022/05/03 05:40:46;;;;;;;35.22;24.48;;;9.80;99.90;;;;;;4978470;28;37263;-75
2022/05/03 05:43:13;;;;;;;35.65;25.33;;;9.90;99.90;;;;;;4960319;28;38129;-75
2022/05/03 05:45:41;;;;;;;36.47;26.77;;;10.10;99.90;;;;;;4980955;28;40256;-75
2022/05/03 05:48:08;;;;;;;33.00;25.85;;;10.20;99.90;;;;;;4985944;28;38460;-75
2022/05/03 05:50:36;;;;;;;35.45;26.35;;;10.30;99.90;;;;;;4959561;28;39070;-75
2022/05/03 05:55:48;;;;;;;34.65;25.13;;;10.40;99.90;;;;;;4981005;28;39158;-75
2022/05/03 05:58:14;;;;;;;35.90;25.33;;;10.40;99.90;;;;;;4980194;28;39288;-75
2022/05/03 06:00:40;;;;;;;32.25;23.98;;;10.50;99.90;;;;;;4983963;28;38105;-75
2022/05/03 06:03:07;;;;;;;30.00;23.33;;;10.70;99.90;;;;;;4963064;28;38306;-75
2022/05/03 06:05:33;;;;;;;30.55;22.60;;;10.80;99.90;;;;;;4971160;28;39920;-76
2022/05/03 06:07:59;;;;;;;31.63;21.75;;;10.90;99.90;;;;;;4968751;28;39537;-76
2022/05/03 06:10:26;;;;;;;30.30;22.55;;;11.00;99.90;;;;;;4974088;28;39294;-77
2022/05/03 06:12:53;;;;;;;30.70;21.42;;;11.10;99.90;;;;;;4959323;28;38463;-76
2022/05/03 06:15:19;;;;;;;29.58;23.25;;;11.40;99.90;;;;;;4963412;28;39805;-76
2022/05/03 06:17:46;;;;;;;24.15;20.67;;;11.60;99.90;;;;;;4964849;28;39008;-76
2022/05/03 06:20:12;;;;;;;28.75;19.45;;;11.80;99.90;;;;;;4981870;28;39051;-76
2022/05/03 06:22:39;;;;;;;27.35;19.58;;;12.00;99.90;;;;;;4970193;28;37598;-76
2022/05/03 06:25:09;;;;;;;26.80;19.13;;;12.10;99.90;;;;;;4977779;28;38412;-78
2022/05/03 06:27:36;;;;;;;28.45;18.98;;;12.20;99.90;;;;;;4962966;28;39862;-77
2022/05/03 06:30:06;;;;;;;23.63;19.75;;;12.20;99.90;;;;;;4944630;28;40073;-77
2022/05/03 06:32:34;;;;;;;30.45;20.00;;;12.40;99.90;;;;;;4956835;28;40313;-77
2022/05/03 06:35:00;;;;;;;27.02;20.13;;;12.50;99.90;;;;;;4975115;28;39725;-77
2022/05/03 06:37:26;;;;;;;27.73;19.38;;;12.60;99.90;;;;;;4968068;28;46919;-78
2022/05/03 06:39:52;;;;;;;31.13;20.17;;;12.70;99.90;;;;;;4982556;28;38272;-77
2022/05/03 06:42:19;;;;;;;25.30;18.85;;;12.70;99.90;;;;;;4983665;28;37792;-77
2022/05/03 06:44:45;;;;;;;26.67;20.00;;;12.90;99.90;;;;;;4983701;28;40484;-77
2022/05/03 06:47:11;;;;;;;24.23;18.58;;;12.90;99.90;;;;;;4987356;28;40954;-77
2022/05/03 06:49:37;;;;;;;31.20;20.08;;;13.00;99.90;;;;;;4959910;28;38839;-78
2022/05/03 06:52:03;;;;;;;29.40;21.88;;;13.10;99.90;;;;;;4983678;28;37917;-77
2022/05/03 06:54:29;;;;;;;31.48;22.83;;;13.20;99.90;;;;;;4978792;28;38486;-77
2022/05/03 06:56:56;;;;;;;25.27;19.42;;;13.20;99.90;;;;;;4968886;28;38586;-76
2022/05/03 06:59:22;;;;;;;31.70;20.88;;;13.30;99.90;;;;;;4959384;28;37419;-75
2022/05/03 07:01:48;;;;;;;25.40;20.55;;;13.40;99.90;;;;;;4983990;28;37102;-76
2022/05/03 07:04:14;;;;;;;28.05;21.50;;;13.50;99.90;;;;;;4977250;28;39270;-79
2022/05/03 07:06:40;;;;;;;28.58;22.05;;;13.50;99.90;;;;;;4970981;28;37591;-76
2022/05/03 07:09:06;;;;;;;28.23;20.77;;;13.50;99.90;;;;;;4974551;28;39252;-75
2022/05/03 07:11:32;;;;;;;27.40;20.48;;;13.70;99.90;;;;;;4983936;28;37459;-77
2022/05/03 07:13:58;;;;;;;29.50;22.10;;;14.00;99.90;;;;;;4984113;28;39361;-77
2022/05/03 07:16:24;;;;;;;28.95;21.27;;;14.20;99.90;;;;;;4963638;28;39621;-77
2022/05/03 07:24:20;;;;;;;31.52;22.92;;;14.30;99.90;;;;;;4982045;28;39396;-79
2022/05/03 07:26:46;;;;;;;30.27;22.08;;;14.20;99.90;;;;;;4963443;28;39788;-79
2022/05/03 07:29:12;;;;;;;22.67;19.30;;;14.20;99.90;;;;;;4958339;28;37428;-79
2022/05/03 07:31:41;;;;;;;22.33;19.27;;;14.30;99.90;;;;;;4977208;28;37814;-79
2022/05/03 07:34:11;;;;;;;26.73;19.85;;;14.20;99.90;;;;;;4978150;28;39703;-79
2022/05/03 07:36:37;;;;;;;28.52;23.05;;;14.50;99.90;;;;;;4972473;28;39566;-80
2022/05/03 07:39:03;;;;;;;26.02;20.98;;;14.50;99.90;;;;;;4965234;28;37776;-82
2022/05/03 07:41:29;;;;;;;24.40;21.02;;;14.60;99.90;;;;;;4983114;28;39663;-78
2022/05/03 07:43:55;;;;;;;28.77;24.52;;;14.70;99.90;;;;;;4973924;28;38680;-79
2022/05/03 07:46:21;;;;;;;29.42;23.52;;;14.70;99.90;;;;;;4958800;28;38058;-78
2022/05/03 07:48:48;;;;;;;28.10;23.20;;;14.90;99.90;;;;;;4959476;28;37428;-81
2022/05/03 07:51:14;;;;;;;29.65;23.00;;;15.00;99.90;;;;;;4976809;28;37701;-80
2022/05/03 07:53:40;;;;;;;29.00;24.92;;;15.00;99.90;;;;;;4976901;28;38680;-80
2022/05/03 07:56:06;;;;;;;26.52;23.30;;;15.10;99.90;;;;;;4973506;28;38852;-81
2022/05/03 07:58:35;;;;;;;27.48;22.48;;;15.30;99.90;;;;;;4963935;28;37177;-80
2022/05/03 08:01:02;;;;;;;26.60;21.10;;;15.50;99.90;;;;;;4960407;28;36843;-78
2022/05/03 08:03:28;;;;;;;27.48;21.65;;;15.70;99.90;;;;;;4960926;28;39253;-80
2022/05/03 08:05:54;;;;;;;27.00;21.42;;;15.80;99.90;;;;;;4976177;28;37566;-80
2022/05/03 08:08:20;;;;;;;24.65;21.92;;;16.00;99.90;;;;;;4957367;28;38540;-80
2022/05/03 08:10:47;;;;;;;28.00;21.60;;;16.20;99.90;;;;;;4981429;28;37378;-79
2022/05/03 08:13:13;;;;;;;26.75;22.27;;;16.00;99.90;;;;;;4965700;28;39619;-85
2022/05/03 08:15:39;;;;;;;25.58;22.00;;;15.80;99.90;;;;;;4958233;28;39456;-85
2022/05/03 08:18:06;;;;;;;23.85;19.70;;;15.90;99.90;;;;;;4960387;28;38981;-85
2022/05/03 08:20:32;;;;;;;23.80;20.05;;;16.00;99.90;;;;;;4933130;28;37471;-84
2022/05/03 08:23:02;;;;;;;24.40;19.50;;;16.20;99.90;;;;;;4951226;28;39655;-84
2022/05/03 08:25:29;;;;;;;25.95;18.85;;;16.50;99.90;;;;;;4948256;28;47143;-84
2022/05/03 08:27:55;;;;;;;21.35;17.67;;;16.80;99.90;;;;;;4963534;28;38305;-84
2022/05/03 08:30:21;;;;;;;21.80;18.95;;;16.70;99.90;;;;;;4968018;28;38454;-84
2022/05/03 08:32:48;;;;;;;19.02;16.95;;;16.70;99.90;;;;;;4980561;28;38609;-84
2022/05/03 08:35:14;;;;;;;19.70;17.42;;;16.80;99.90;;;;;;4947290;28;39826;-84
2022/05/03 08:43:11;;;;;;;19.30;16.33;;;17.00;99.90;;;;;;4972372;28;39403;-83
2022/05/03 08:45:37;;;;;;;19.88;17.63;;;16.70;99.90;;;;;;4973741;28;38962;-78
2022/05/03 08:48:06;;;;;;;21.63;18.60;;;16.70;99.90;;;;;;4953291;28;39452;-80
2022/05/03 08:50:33;;;;;;;20.63;16.65;;;16.30;99.90;;;;;;4975797;28;38733;-80
2022/05/03 08:53:05;;;;;;;18.67;16.15;;;16.40;99.90;;;;;;4972404;28;40131;-81
2022/05/03 08:55:31;;;;;;;19.75;15.43;;;16.40;99.90;;;;;;4976542;28;48097;-83
2022/05/03 08:57:58;;;;;;;21.92;17.63;;;16.50;99.90;;;;;;4979768;28;38979;-81
2022/05/03 09:00:25;;;;;;;22.58;19.33;;;16.80;99.90;;;;;;4977776;28;38180;-82
2022/05/03 09:02:56;;;;;;;22.80;17.52;;;16.50;99.90;;;;;;4954240;28;38502;-81
2022/05/03 09:05:24;;;;;;;20.83;17.42;;;16.30;99.90;;;;;;4932577;28;41441;-79
2022/05/03 09:07:52;;;;;;;17.38;15.57;;;16.50;99.90;;;;;;4952199;28;38755;-81
2022/05/03 09:10:22;;;;;;;19.70;16.50;;;16.40;99.90;;;;;;4959920;28;41413;-80
2022/05/03 09:12:49;;;;;;;18.63;16.20;;;16.80;99.90;;;;;;4960878;28;39011;-81
2022/05/03 09:15:36;;;;;;;23.63;19.60;;;17.00;99.90;;;;;;4959909;28;38740;-80
2022/05/03 09:18:02;;;;;;;24.48;20.17;;;17.20;99.90;;;;;;4960391;28;37423;-78
2022/05/03 09:26:30;;;;;;;28.10;22.95;;;17.00;99.90;;;;;;4978511;28;40344;-80
2022/05/03 09:29:11;;;;;;;26.48;23.08;;;16.60;99.90;;;;;;4954951;28;40274;-81
2022/05/03 09:31:46;;;;;;;26.80;23.25;;;16.40;99.90;;;;;;4974284;28;47227;-82
2022/05/03 09:34:26;;;;;;;27.60;23.40;;;16.70;99.90;;;;;;4957978;28;39742;-81
2022/05/03 09:36:54;;;;;;;27.17;22.80;;;16.40;99.90;;;;;;4977675;28;39661;-82
2022/05/03 09:39:28;;;;;;;29.17;24.60;;;16.10;99.90;;;;;;4939152;28;40453;-81
2022/05/03 09:42:15;;;;;;;28.67;22.27;;;16.00;99.90;;;;;;4968164;28;38326;-82
2022/05/03 09:45:02;;;;;;;28.50;23.35;;;16.20;99.90;;;;;;4977565;28;48281;-81
2022/05/03 09:47:52;;;;;;;25.67;21.30;;;16.50;99.90;;;;;;4963240;28;39989;-81
2022/05/03 09:50:28;;;;;;;22.00;18.45;;;17.00;99.90;;;;;;4965913;28;38489;-83
2022/05/03 09:52:56;;;;;;;20.27;16.52;;;17.70;99.90;;;;;;4963137;28;38963;-83
2022/05/03 09:55:33;;;;;;;21.50;17.45;;;17.30;99.90;;;;;;4958836;28;44100;-83
2022/05/03 09:58:01;;;;;;;19.02;15.23;;;17.30;99.90;;;;;;4956209;28;39800;-83
2022/05/03 10:00:27;;;;;;;17.48;14.23;;;17.80;99.90;;;;;;4972147;28;48274;-83
2022/05/03 10:02:53;;;;;;;20.27;15.75;;;18.00;99.90;;;;;;4975620;28;38031;-83
2022/05/03 10:05:21;;;;;;;14.70;13.13;;;17.90;99.90;;;;;;4955228;28;40574;-83
2022/05/03 10:07:50;;;;;;;16.88;14.43;;;17.70;99.90;;;;;;4963056;28;38028;-83
2022/05/03 10:10:16;;;;;;;16.63;14.73;;;17.80;99.90;;;;;;4954900;28;36615;-80
2022/05/03 10:12:44;;;;;;;19.90;16.77;;;17.90;99.90;;;;;;4964414;28;36558;-82
2022/05/03 10:15:11;;;;;;;16.30;14.43;;;18.30;99.90;;;;;;4957149;28;37919;-82
2022/05/03 10:20:46;;;;;;;28.58;21.90;;;18.60;99.90;;;;;;4978697;28;49277;-82
2022/05/03 10:23:19;;;;;;;22.95;19.60;;;18.30;99.90;;;;;;4974074;28;36581;-82
2022/05/03 10:25:45;;;;;;;27.10;21.30;;;17.90;99.90;;;;;;4960198;28;38628;-82
2022/05/03 10:28:11;;;;;;;29.60;23.58;;;18.10;99.90;;;;;;4983763;28;39130;-81
2022/05/03 10:30:40;;;;;;;26.17;21.23;;;18.10;99.90;;;;;;4983930;28;37639;-81
2022/05/03 10:33:25;;;;;;;28.55;24.23;;;18.00;99.90;;;;;;4973449;28;38226;-82
2022/05/03 10:35:51;;;;;;;33.85;24.75;;;17.90;99.90;;;;;;4976473;28;38568;-83
2022/05/03 10:38:52;;;;;;;33.50;24.67;;;17.50;99.90;;;;;;4982267;28;38613;-83
2022/05/03 10:41:24;;;;;;;34.30;25.85;;;17.30;99.90;;;;;;4976131;28;39069;-83
2022/05/03 10:43:50;;;;;;;34.55;26.23;;;17.20;99.90;;;;;;4965190;28;37905;-82
2022/05/03 10:46:22;;;;;;;34.08;25.15;;;17.30;99.90;;;;;;4986974;28;38292;-85
2022/05/03 10:49:20;;;;;;;34.92;25.60;;;17.60;99.90;;;;;;4966161;28;39279;-83
2022/05/03 10:51:48;;;;;;;32.63;24.50;;;18.00;99.90;;;;;;4951179;28;48256;-83
2022/05/03 10:54:14;;;;;;;33.50;24.25;;;17.90;99.90;;;;;;4983769;28;37462;-83
2022/05/03 10:57:00;;;;;;;33.80;24.48;;;17.90;99.90;;;;;;4979044;28;38401;-82
2022/05/03 10:59:46;;;;;;;30.90;23.25;;;18.00;99.90;;;;;;4964160;28;39207;-81
2022/05/03 11:02:12;;;;;;;29.50;21.40;;;18.30;99.90;;;;;;4984678;28;39345;-81
2022/05/03 11:05:16;;;;;;;25.52;20.10;;;18.60;99.90;;;;;;4957864;28;37925;-82
2022/05/03 11:08:16;;;;;;;31.35;22.33;;;18.70;99.90;;;;;;4981077;28;48256;-82
2022/05/03 11:10:43;;;;;;;30.40;21.35;;;18.40;99.90;;;;;;4966186;28;47201;-82
2022/05/03 11:13:40;;;;;;;30.75;20.98;;;18.80;99.90;;;;;;4961690;28;39436;-83
2022/05/03 11:16:21;;;;;;;28.10;19.77;;;18.10;99.90;;;;;;4976412;28;37366;-81
2022/05/03 11:18:47;;;;;;;29.83;21.05;;;17.30;99.90;;;;;;4964032;28;39904;-83
2022/05/03 11:21:16;;;;;;;25.67;17.25;;;17.30;99.90;;;;;;4982356;28;38885;-83
2022/05/03 11:23:50;;;;;;;27.83;19.17;;;17.70;99.90;;;;;;4974743;28;39730;-84
2022/05/03 11:26:19;;;;;;;24.50;17.55;;;17.80;99.90;;;;;;4966001;28;38840;-84
2022/05/03 11:28:47;;;;;;;31.88;22.00;;;17.80;99.90;;;;;;4979182;28;38742;-83
2022/05/03 11:31:17;;;;;;;29.95;21.50;;;17.70;99.90;;;;;;4983415;28;38773;-82
2022/05/03 11:33:56;;;;;;;31.17;20.08;;;17.40;99.90;;;;;;4963962;28;40224;-82
2022/05/03 11:36:23;;;;;;;29.25;21.02;;;17.40;99.90;;;;;;4984144;28;37381;-81
2022/05/03 11:38:50;;;;;;;28.45;18.63;;;17.50;99.90;;;;;;4959800;28;40872;-82
2022/05/03 11:41:24;;;;;;;31.23;21.55;;;17.50;99.90;;;;;;4978645;28;37541;-82
2022/05/03 11:43:50;;;;;;;27.45;19.23;;;17.40;99.90;;;;;;4970859;28;37350;-80
2022/05/03 11:46:18;;;;;;;27.63;19.85;;;17.40;99.90;;;;;;4956560;28;37866;-82
2022/05/03 11:48:49;;;;;;;25.77;17.73;;;17.40;99.90;;;;;;4979008;28;39662;-82
2022/05/03 11:56:46;;;;;;;23.45;16.30;;;16.90;99.90;;;;;;4972557;28;50195;-83
2022/05/03 11:59:13;;;;;;;30.27;18.92;;;17.30;99.90;;;;;;4957677;28;40009;-79
2022/05/03 12:01:39;;;;;;;27.20;18.83;;;17.30;99.90;;;;;;4958455;28;39922;-82
2022/05/03 12:04:07;;;;;;;30.13;18.80;;;17.20;99.90;;;;;;4957529;28;38210;-83
2022/05/03 12:06:43;;;;;;;27.25;18.08;;;17.00;99.90;;;;;;4975081;28;37640;-83
2022/05/03 12:09:11;;;;;;;24.48;15.80;;;16.90;99.90;;;;;;4950676;28;39507;-76
2022/05/03 12:14:35;;;;;;;22.98;14.43;;;17.00;99.90;;;;;;4978270;28;40171;-77
2022/05/03 12:17:02;;;;;;;19.15;12.93;;;17.10;99.90;;;;;;4975366;28;37615;-78
2022/05/03 12:19:34;;;;;;;20.45;14.32;;;17.60;99.90;;;;;;4954172;28;39316;-76
2022/05/03 12:22:07;;;;;;;;;;;18.00;99.90;;;;;;4974728;28;39537;-76
2022/05/03 12:24:35;;;;;;;19.33;14.07;;;17.70;99.90;;;;;;4968548;28;47457;-76
2022/05/03 12:27:15;;;;;;;16.33;12.60;;;17.70;99.90;;;;;;4967774;28;35940;-77
2022/05/03 12:29:48;;;;;;;17.50;11.65;;;17.30;99.90;;;;;;4941788;28;48261;-78
2022/05/03 12:32:19;;;;;;;16.50;12.13;;;16.90;99.90;;;;;;4935840;28;37013;-81
2022/05/03 12:35:01;;;;;;;17.40;11.10;;;16.80;99.90;;;;;;4969747;28;39814;-79
2022/05/03 12:37:28;;;;;;;13.77;10.77;;;16.90;99.90;;;;;;4952037;28;47251;-81
2022/05/03 12:40:01;;;;;;;16.25;12.13;;;17.20;99.90;;;;;;4955399;28;39598;-80
2022/05/03 12:42:27;;;;;;;13.98;11.43;;;17.60;99.90;;;;;;4969425;28;39368;-81
2022/05/03 12:44:57;;;;;;;13.43;10.98;;;18.20;99.90;;;;;;4959339;28;39309;-81
2022/05/03 12:47:26;;;;;;;14.75;10.82;;;18.70;99.90;;;;;;4958251;28;37636;-80
2022/05/03 12:49:53;;;;;;;9.77;7.85;;;19.10;99.90;;;;;;4974409;28;39486;-81
2022/05/03 12:52:19;;;;;;;14.32;10.57;;;19.60;99.90;;;;;;4957768;28;40612;-81
2022/05/03 12:54:48;;;;;;;11.32;9.02;;;19.50;99.90;;;;;;4958225;28;39661;-82
2022/05/03 12:59:59;;;;;;;11.15;8.52;;;20.10;99.90;;;;;;4977991;28;40206;-81
2022/05/03 13:02:26;;;;;;;13.07;8.80;;;20.90;99.90;;;;;;4958025;28;39621;-80
2022/05/03 13:04:53;;;;;;;14.05;8.93;;;20.60;99.90;;;;;;4975116;28;39983;-79
2022/05/03 13:07:19;;;;;;;11.23;9.00;;;20.80;99.90;;;;;;4976592;28;36024;-80
2022/05/03 13:09:45;;;;;;;12.40;7.57;;;20.70;99.90;;;;;;4979793;28;40823;-80
2022/05/03 13:12:11;;;;;;;11.57;8.55;;;19.90;99.90;;;;;;4949232;28;39374;-80
2022/05/03 13:14:38;;;;;;;16.02;10.80;;;19.60;99.90;;;;;;4977433;28;38860;-81
2022/05/03 13:17:04;;;;;;;16.55;12.02;;;19.30;99.90;;;;;;4960871;28;38939;-80
2022/05/03 13:19:32;;;;;;;16.67;12.93;;;18.70;99.90;;;;;;4964909;28;39175;-81
2022/05/03 13:21:58;;;;;;;17.98;12.50;;;18.80;99.90;;;;;;4947116;28;40387;-82
2022/05/03 13:24:25;;;;;;;21.08;12.70;;;19.00;99.90;;;;;;4980306;28;39132;-80
2022/05/03 13:26:51;;;;;;;18.55;12.55;;;19.50;99.90;;;;;;4978283;28;37330;-79
2022/05/03 13:29:19;;;;;;;16.83;12.20;;;19.50;99.90;;;;;;4956823;28;39699;-80
2022/05/03 13:31:45;;;;;;;15.38;11.35;;;19.70;99.90;;;;;;4982351;28;39667;-80
2022/05/03 13:34:13;;;;;;;21.25;14.65;;;19.80;99.90;;;;;;4975785;28;38308;-80